Current Weather

Bridgeport/Sikorsky

Bridgeport, Connecticut (KBDR)

Report from: Friday, February 23, 2024 1:52 PM EST
Current time: Friday, February 23, 2024 2:22 PM EST

Nearby weather – Weather history – Daily summaries
Weather forecast

Temperature6.7°C (44.1°F)
Wind chill5.3°C (41.5°F)
Dew point4.4°C (39.9°F)
Winds 4 kts (2.1 m/s, 4.6 mph) East-Southeast (120°)
Visibility10 mi. (16.1 km)
Clouds Few clouds 1,500 ft. (457 m)
Ceiling: Overcast 4,800 ft. (1,463 m)
Altimeter29.46 in.Hg (998 mB)
Relative humidity85 %
Density altitude-345 ft. (-105 m)
Sea-level pressure99.8 kPa (998 mB, 29.46 in.Hg)
Remarks Automated weather observing station with precipitation discriminator
Flight conditions Visual Meteorological Conditions
Raw dataKBDR 231852Z 12004KT 10SM FEW015 OVC048 07/04 A2946 RMK AO2 SLP977 T00670044
An error has occurred. This application may no longer respond until reloaded. Reload 🗙